createdAt,value
2023-05-06T00:00:10.444Z,100.00
2023-05-06T00:02:38.835Z,100.00
2023-05-06T00:05:08.230Z,100.00
2023-05-06T00:07:37.093Z,100.00
2023-05-06T00:10:07.753Z,100.00
2023-05-06T00:12:36.179Z,100.00
2023-05-06T00:15:04.929Z,100.00
2023-05-06T00:17:33.261Z,95.72
2023-05-06T00:20:01.864Z,91.38
2023-05-06T00:22:30.286Z,90.99
2023-05-06T00:24:58.796Z,93.72
2023-05-06T00:27:28.792Z,95.21
2023-05-06T00:29:58.029Z,99.71
2023-05-06T00:32:26.523Z,100.00
2023-05-06T00:34:54.897Z,100.00
2023-05-06T00:37:23.183Z,100.00
2023-05-06T00:39:51.656Z,100.00
2023-05-06T00:42:22.690Z,100.00
2023-05-06T00:44:52.631Z,100.00
2023-05-06T00:47:23.423Z,94.00
2023-05-06T00:49:52.212Z,89.17
2023-05-06T00:52:21.301Z,90.20
2023-05-06T00:54:50.278Z,91.43
2023-05-06T00:57:18.930Z,89.61
2023-05-06T00:59:47.274Z,89.38
2023-05-06T01:02:17.418Z,97.28
2023-05-06T01:04:45.952Z,100.00
2023-05-06T01:07:25.155Z,100.00
2023-05-06T01:10:00.377Z,100.00
2023-05-06T01:12:33.697Z,100.00
2023-05-06T01:15:08.833Z,100.00
2023-05-06T01:17:44.947Z,100.00
2023-05-06T01:20:15.419Z,100.00
2023-05-06T01:22:43.958Z,100.00
2023-05-06T01:25:21.425Z,100.00
2023-05-06T01:27:49.846Z,100.00
2023-05-06T01:30:19.544Z,91.44
2023-05-06T01:32:59.731Z,84.35
2023-05-06T01:35:36.639Z,80.66
2023-05-06T01:38:13.947Z,78.67
2023-05-06T01:40:45.725Z,76.48
2023-05-06T01:43:14.542Z,76.15
2023-05-06T01:45:43.898Z,75.50
2023-05-06T01:48:13.008Z,74.42
2023-05-06T01:50:42.057Z,75.29
2023-05-06T01:53:10.368Z,75.78
2023-05-06T01:55:38.970Z,75.57
2023-05-06T01:58:08.832Z,75.86
2023-05-06T02:00:40.313Z,76.82
2023-05-06T02:03:08.979Z,77.76
2023-05-06T02:05:37.446Z,78.27
2023-05-06T02:08:06.004Z,79.94
2023-05-06T02:10:34.334Z,80.73
2023-05-06T02:13:02.820Z,81.32
2023-05-06T02:15:32.580Z,82.60
2023-05-06T02:18:01.707Z,83.18
2023-05-06T02:20:30.168Z,83.43
2023-05-06T02:22:58.462Z,84.35
2023-05-06T02:25:26.803Z,85.05
2023-05-06T02:27:55.136Z,85.17
2023-05-06T02:30:23.691Z,85.73
2023-05-06T02:32:53.530Z,86.28
2023-05-06T02:35:22.022Z,87.02
2023-05-06T02:37:50.380Z,88.01
2023-05-06T02:40:18.993Z,88.52
2023-05-06T02:42:47.390Z,88.67
2023-05-06T02:45:15.783Z,89.28
2023-05-06T02:47:44.181Z,89.97
2023-05-06T02:50:14.029Z,89.70
2023-05-06T02:52:42.973Z,90.14
2023-05-06T02:55:11.965Z,89.63
2023-05-06T02:57:40.408Z,89.74
2023-05-06T03:00:11.136Z,89.63
2023-05-06T03:02:39.610Z,89.53
2023-05-06T03:05:09.305Z,89.90
2023-05-06T03:07:40.086Z,89.41
2023-05-06T03:10:09.268Z,89.47
2023-05-06T03:12:37.598Z,89.58
2023-05-06T03:15:07.274Z,89.73
2023-05-06T03:17:36.164Z,89.70
2023-05-06T03:20:05.175Z,89.00
2023-05-06T03:22:33.490Z,85.63
2023-05-06T03:25:03.399Z,81.53
2023-05-06T03:27:31.790Z,77.50
2023-05-06T03:30:00.204Z,76.13
2023-05-06T03:32:28.638Z,73.44
2023-05-06T03:34:57.077Z,71.97
2023-05-06T03:37:25.391Z,69.98
2023-05-06T03:39:53.726Z,65.81
2023-05-06T03:42:23.622Z,64.13
2023-05-06T03:44:52.134Z,65.98
2023-05-06T03:47:20.657Z,65.84
2023-05-06T03:49:49.196Z,62.17
2023-05-06T03:52:17.577Z,62.53
2023-05-06T03:54:46.069Z,63.18
2023-05-06T03:57:14.495Z,60.33
2023-05-06T03:59:44.281Z,59.50
2023-05-06T04:02:12.775Z,59.94
2023-05-06T04:04:41.261Z,61.39
2023-05-06T04:07:09.649Z,60.13
2023-05-06T04:09:37.967Z,59.52
2023-05-06T04:12:07.076Z,59.64
2023-05-06T04:14:35.576Z,58.81
2023-05-06T04:17:05.627Z,59.73
2023-05-06T04:19:34.065Z,59.41
2023-05-06T04:22:02.608Z,59.72
2023-05-06T04:24:31.471Z,60.42
2023-05-06T04:26:59.801Z,59.92
2023-05-06T04:29:28.322Z,60.92
2023-05-06T04:31:56.687Z,59.68
2023-05-06T04:34:27.904Z,59.14
2023-05-06T04:36:56.632Z,57.25
2023-05-06T04:39:25.210Z,54.97
2023-05-06T04:41:53.674Z,56.23
2023-05-06T04:44:22.549Z,54.11
2023-05-06T04:46:51.277Z,54.39
2023-05-06T04:49:19.547Z,52.50
2023-05-06T04:51:49.377Z,52.21
2023-05-06T04:54:17.677Z,53.01
2023-05-06T04:56:45.972Z,49.46
2023-05-06T04:59:14.416Z,50.19
2023-05-06T05:01:42.747Z,50.53
2023-05-06T05:04:11.168Z,50.62
2023-05-06T05:06:39.528Z,50.64
2023-05-06T05:09:10.707Z,51.16
2023-05-06T05:11:39.440Z,51.79
2023-05-06T05:14:07.756Z,51.64
2023-05-06T05:16:36.261Z,51.38
2023-05-06T05:19:05.757Z,49.35
2023-05-06T05:21:35.872Z,47.73
2023-05-06T05:24:04.226Z,49.60
2023-05-06T05:26:33.926Z,49.69
2023-05-06T05:29:02.211Z,49.12
2023-05-06T05:31:31.567Z,48.84
2023-05-06T05:34:00.264Z,47.20
2023-05-06T05:36:29.082Z,47.55
2023-05-06T05:38:57.429Z,47.25
2023-05-06T05:41:26.985Z,46.07
2023-05-06T05:43:56.741Z,45.10
2023-05-06T05:46:25.295Z,44.42
2023-05-06T05:48:53.662Z,45.78
2023-05-06T05:51:21.957Z,43.59
2023-05-06T05:53:52.048Z,41.68
2023-05-06T05:56:20.761Z,40.94
2023-05-06T05:58:49.252Z,41.88
2023-05-06T06:01:19.574Z,41.37
2023-05-06T06:03:48.904Z,42.03
2023-05-06T06:06:17.738Z,44.36
2023-05-06T06:08:46.366Z,45.44
2023-05-06T06:11:14.718Z,45.74
2023-05-06T06:13:42.993Z,43.92
2023-05-06T06:16:12.155Z,43.32
2023-05-06T06:18:41.902Z,45.08
2023-05-06T06:21:10.339Z,44.84
2023-05-06T06:23:38.729Z,43.40
2023-05-06T06:26:07.109Z,44.82
2023-05-06T06:28:35.447Z,43.90
2023-05-06T06:31:03.874Z,43.28
2023-05-06T06:33:32.317Z,46.28
2023-05-06T06:36:02.161Z,42.96
2023-05-06T06:38:30.493Z,43.63
2023-05-06T06:40:58.803Z,42.71
2023-05-06T06:43:27.282Z,44.60
2023-05-06T06:45:56.460Z,44.07
2023-05-06T06:48:24.958Z,44.28
2023-05-06T06:50:53.320Z,43.12
2023-05-06T06:53:23.291Z,44.00
2023-05-06T06:55:51.815Z,46.14
2023-05-06T06:58:20.200Z,43.81
2023-05-06T07:00:48.591Z,45.17
2023-05-06T07:03:19.713Z,43.68
2023-05-06T07:05:48.220Z,44.27
2023-05-06T07:08:17.342Z,45.45
2023-05-06T07:10:47.244Z,43.43
2023-05-06T07:13:16.013Z,44.34
2023-05-06T07:15:44.971Z,44.86
2023-05-06T07:18:13.482Z,46.28
2023-05-06T07:20:41.921Z,46.46
2023-05-06T07:23:10.258Z,44.92
2023-05-06T07:25:38.587Z,47.07
2023-05-06T07:28:08.589Z,45.16
2023-05-06T07:30:39.585Z,43.49
2023-05-06T07:33:08.010Z,42.83
2023-05-06T07:35:36.473Z,41.70
2023-05-06T07:38:04.944Z,42.21
2023-05-06T07:40:33.532Z,45.75
2023-05-06T07:43:01.880Z,44.74
2023-05-06T07:45:31.877Z,45.78
2023-05-06T07:48:00.343Z,47.51
2023-05-06T07:50:28.677Z,49.60
2023-05-06T07:52:57.004Z,52.73
2023-05-06T07:55:25.429Z,52.18
2023-05-06T07:57:53.904Z,53.22
2023-05-06T08:00:22.455Z,55.12
2023-05-06T08:02:52.286Z,56.49
2023-05-06T08:05:20.795Z,59.29
2023-05-06T08:07:50.277Z,60.66
2023-05-06T08:10:18.832Z,62.65
2023-05-06T08:12:47.470Z,64.75
2023-05-06T08:15:15.895Z,65.60
2023-05-06T08:17:44.446Z,65.63
2023-05-06T08:20:15.245Z,64.76
2023-05-06T08:22:43.594Z,63.83
2023-05-06T08:25:12.237Z,62.03
2023-05-06T08:27:40.992Z,61.78
2023-05-06T08:30:10.496Z,61.47
2023-05-06T08:32:39.448Z,62.17
2023-05-06T08:35:08.860Z,60.83
2023-05-06T08:37:38.996Z,60.83
2023-05-06T08:40:16.921Z,62.78
2023-05-06T08:42:47.824Z,61.87
2023-05-06T08:45:16.382Z,62.07
2023-05-06T08:47:45.169Z,61.72
2023-05-06T08:50:13.626Z,61.91
2023-05-06T08:52:43.643Z,61.42
2023-05-06T08:55:12.881Z,62.01
2023-05-06T08:57:43.948Z,61.79
2023-05-06T09:00:13.263Z,60.67
2023-05-06T09:02:43.262Z,60.28
2023-05-06T09:05:12.865Z,61.51
2023-05-06T09:07:42.723Z,61.57
2023-05-06T09:10:14.533Z,61.20
2023-05-06T09:12:43.141Z,61.83
2023-05-06T09:15:13.014Z,63.36
2023-05-06T09:17:41.534Z,64.36
2023-05-06T09:20:13.543Z,64.30
2023-05-06T09:22:43.522Z,63.72
2023-05-06T09:25:12.496Z,64.35
2023-05-06T09:27:41.601Z,63.62
2023-05-06T09:30:12.891Z,64.36
2023-05-06T09:32:41.943Z,64.42
2023-05-06T09:35:11.965Z,64.47
2023-05-06T09:37:42.849Z,63.05
2023-05-06T09:40:11.697Z,63.55
2023-05-06T09:42:40.210Z,62.99
2023-05-06T09:45:10.755Z,64.35
2023-05-06T09:47:39.507Z,64.61
2023-05-06T09:50:11.377Z,64.63
2023-05-06T09:52:39.803Z,63.64
2023-05-06T09:55:12.619Z,62.01
2023-05-06T09:57:42.302Z,61.24
2023-05-06T10:00:12.167Z,61.61
2023-05-06T10:02:42.242Z,61.80
2023-05-06T10:05:12.524Z,61.73
2023-05-06T10:07:42.410Z,61.46
2023-05-06T10:10:13.690Z,60.30
2023-05-06T10:12:42.219Z,58.31
2023-05-06T10:15:11.565Z,59.51
2023-05-06T10:17:43.053Z,59.18
2023-05-06T10:20:14.725Z,58.81
2023-05-06T10:22:54.598Z,59.36
2023-05-06T10:25:31.838Z,59.71
2023-05-06T10:28:01.506Z,60.21
2023-05-06T10:30:34.111Z,60.69
2023-05-06T10:33:06.477Z,61.48
2023-05-06T10:35:46.100Z,61.27
2023-05-06T10:38:19.032Z,61.95
2023-05-06T10:40:50.044Z,63.82
2023-05-06T10:43:26.324Z,65.07
2023-05-06T10:46:04.815Z,65.88
2023-05-06T10:48:33.856Z,65.49
2023-05-06T10:51:24.723Z,63.90
2023-05-06T10:54:04.763Z,63.93
2023-05-06T10:56:35.736Z,64.82
2023-05-06T10:59:08.315Z,64.14
2023-05-06T11:01:37.495Z,62.87
2023-05-06T11:04:10.897Z,64.98
2023-05-06T11:06:41.896Z,62.97
2023-05-06T11:09:19.010Z,62.59
2023-05-06T11:12:01.985Z,61.72
2023-05-06T11:14:31.225Z,61.68
2023-05-06T11:17:01.735Z,65.63
2023-05-06T11:19:31.584Z,70.00
2023-05-06T11:22:01.232Z,70.04
2023-05-06T11:24:30.723Z,69.51
2023-05-06T11:27:01.839Z,69.86
2023-05-06T11:29:30.147Z,69.06
2023-05-06T11:31:58.665Z,68.48
2023-05-06T11:34:29.243Z,67.61
2023-05-06T11:37:02.319Z,65.69
2023-05-06T11:39:36.688Z,64.66
2023-05-06T11:42:09.785Z,64.93
2023-05-06T11:44:39.885Z,63.40
2023-05-06T11:47:09.522Z,62.86
2023-05-06T11:49:39.355Z,64.43
2023-05-06T11:52:09.203Z,63.58
2023-05-06T11:54:39.650Z,64.29
2023-05-06T11:57:10.019Z,65.84
2023-05-06T11:59:39.613Z,67.71
2023-05-06T12:02:09.704Z,67.42
2023-05-06T12:04:42.400Z,68.31
2023-05-06T12:07:12.394Z,69.29
2023-05-06T12:09:43.715Z,68.50
2023-05-06T12:12:16.634Z,67.96
2023-05-06T12:14:46.240Z,68.27
2023-05-06T12:17:15.587Z,68.87
2023-05-06T12:19:44.145Z,67.47
2023-05-06T12:22:19.735Z,69.76
2023-05-06T12:24:48.415Z,71.44
2023-05-06T12:27:33.090Z,72.46
2023-05-06T12:30:06.999Z,72.89
2023-05-06T12:32:35.396Z,71.20
2023-05-06T12:35:07.740Z,71.18
2023-05-06T12:37:36.622Z,70.91
2023-05-06T12:40:05.210Z,70.93
2023-05-06T12:42:35.006Z,71.77
2023-05-06T12:45:15.966Z,71.41
2023-05-06T12:47:54.896Z,71.35
2023-05-06T12:50:34.126Z,69.68
2023-05-06T12:53:02.860Z,68.47
2023-05-06T12:55:32.329Z,68.93
2023-05-06T12:58:02.764Z,68.54
2023-05-06T13:00:31.473Z,67.47
2023-05-06T13:02:59.840Z,68.16
2023-05-06T13:05:28.532Z,67.58
2023-05-06T13:07:56.878Z,67.44
2023-05-06T13:10:25.774Z,65.91
2023-05-06T13:12:54.205Z,66.41
2023-05-06T13:15:24.257Z,67.80
2023-05-06T13:17:53.053Z,70.50
2023-05-06T13:20:21.478Z,69.92
2023-05-06T13:22:54.789Z,70.35
2023-05-06T13:25:23.776Z,70.88
2023-05-06T13:27:52.162Z,71.78
2023-05-06T13:30:20.626Z,71.31
2023-05-06T13:32:50.546Z,69.80
2023-05-06T13:35:19.028Z,71.41
2023-05-06T13:37:47.697Z,70.69
2023-05-06T13:40:16.038Z,70.61
2023-05-06T13:42:44.360Z,70.59
2023-05-06T13:45:12.833Z,70.89
2023-05-06T13:47:43.197Z,71.18
2023-05-06T13:50:13.360Z,71.32
2023-05-06T13:52:41.723Z,72.07
2023-05-06T13:55:10.720Z,72.27
2023-05-06T13:57:39.255Z,72.33
2023-05-06T14:00:11.031Z,70.96
2023-05-06T14:02:39.514Z,70.13
2023-05-06T14:05:09.095Z,70.20
2023-05-06T14:07:40.534Z,69.29
2023-05-06T14:10:10.250Z,68.84
2023-05-06T14:12:38.634Z,69.22
2023-05-06T14:15:08.339Z,69.29
2023-05-06T14:17:37.348Z,69.80
2023-05-06T14:20:06.651Z,70.98
2023-05-06T14:22:34.999Z,71.24
2023-05-06T14:25:05.375Z,71.49
2023-05-06T14:27:33.751Z,72.94
2023-05-06T14:30:08.152Z,71.64
2023-05-06T14:32:37.932Z,72.02
2023-05-06T14:35:07.106Z,71.70
2023-05-06T14:37:35.377Z,71.89
2023-05-06T14:40:05.942Z,72.78
2023-05-06T14:42:35.906Z,72.93
2023-05-06T14:45:04.381Z,73.05
2023-05-06T14:47:32.818Z,72.77
2023-05-06T14:50:01.789Z,73.39
2023-05-06T14:52:30.218Z,71.66
2023-05-06T14:54:58.572Z,72.71
2023-05-06T14:57:28.312Z,73.25
2023-05-06T14:59:56.850Z,73.29
2023-05-06T15:02:25.283Z,73.25
2023-05-06T15:04:53.670Z,74.59
2023-05-06T15:07:21.949Z,76.12
2023-05-06T15:09:50.295Z,76.76
2023-05-06T15:12:18.535Z,75.55
2023-05-06T15:14:48.460Z,75.00
2023-05-06T15:17:16.784Z,75.38
2023-05-06T15:19:45.109Z,76.05
2023-05-06T15:22:13.435Z,76.99
2023-05-06T15:24:41.899Z,76.36
2023-05-06T15:27:10.234Z,76.79
2023-05-06T15:29:39.721Z,76.51
2023-05-06T15:32:09.538Z,77.99
2023-05-06T15:34:38.025Z,78.06
2023-05-06T15:37:06.465Z,78.97
2023-05-06T15:39:38.161Z,81.53
2023-05-06T15:42:06.802Z,82.88
2023-05-06T15:44:37.570Z,83.58
2023-05-06T15:47:06.392Z,85.06
2023-05-06T15:49:51.396Z,84.67
2023-05-06T15:52:22.734Z,86.39
2023-05-06T15:54:51.065Z,86.61
2023-05-06T15:57:19.512Z,88.23
2023-05-06T15:59:47.947Z,88.03
2023-05-06T16:04:49.040Z,87.12
2023-05-06T16:07:17.817Z,87.43
2023-05-06T16:09:46.174Z,87.76
2023-05-06T16:12:15.365Z,87.43
2023-05-06T16:14:43.859Z,88.46
2023-05-06T16:17:12.229Z,89.70
2023-05-06T16:19:40.603Z,89.91
2023-05-06T16:22:10.463Z,90.33
2023-05-06T16:24:38.848Z,90.04
2023-05-06T16:27:07.176Z,89.67
2023-05-06T16:29:35.546Z,89.15
2023-05-06T16:32:03.968Z,89.29
2023-05-06T16:34:32.488Z,89.54
2023-05-06T16:37:01.802Z,88.57
2023-05-06T16:39:31.557Z,87.68
2023-05-06T16:41:59.856Z,87.51
2023-05-06T16:44:28.497Z,88.27
2023-05-06T16:46:56.843Z,88.42
2023-05-06T16:49:27.970Z,88.40
2023-05-06T16:51:58.022Z,88.54
2023-05-06T16:54:26.624Z,88.78
2023-05-06T16:56:56.583Z,88.19
2023-05-06T16:59:24.978Z,87.87
2023-05-06T17:01:53.370Z,87.03
2023-05-06T17:04:21.680Z,86.01
2023-05-06T17:06:50.203Z,85.19
2023-05-06T17:09:18.582Z,84.33
2023-05-06T17:11:46.880Z,84.72
2023-05-06T17:14:16.760Z,84.54
2023-05-06T17:16:45.263Z,84.45
2023-05-06T17:19:13.740Z,83.82
2023-05-06T17:21:42.214Z,84.11
2023-05-06T17:24:10.799Z,83.99
2023-05-06T17:26:40.450Z,83.27
2023-05-06T17:29:08.948Z,82.78
2023-05-06T17:31:38.777Z,83.44
2023-05-06T17:34:07.583Z,83.75
2023-05-06T17:36:35.941Z,81.85
2023-05-06T17:39:04.752Z,81.56
2023-05-06T17:41:33.780Z,81.50
2023-05-06T17:44:02.263Z,81.76
2023-05-06T17:46:31.362Z,81.06
2023-05-06T17:49:01.296Z,81.84
2023-05-06T17:51:29.768Z,82.30
2023-05-06T17:53:58.994Z,82.26
2023-05-06T17:56:27.866Z,82.15
2023-05-06T17:58:56.607Z,81.02
2023-05-06T18:01:24.954Z,80.11
2023-05-06T18:03:53.449Z,79.62
2023-05-06T18:06:23.353Z,77.28
2023-05-06T18:08:53.122Z,76.44
2023-05-06T18:11:21.680Z,75.85
2023-05-06T18:13:50.241Z,74.66
2023-05-06T18:16:18.634Z,73.79
2023-05-06T18:18:47.115Z,72.93
2023-05-06T18:21:15.608Z,72.90
2023-05-06T18:23:45.474Z,72.87
2023-05-06T18:26:18.754Z,72.58
2023-05-06T18:28:53.026Z,72.33
2023-05-06T18:31:21.778Z,71.59
2023-05-06T18:33:50.232Z,71.49
2023-05-06T18:36:18.638Z,70.36
2023-05-06T18:38:48.592Z,69.52
2023-05-06T18:41:16.880Z,68.98
2023-05-06T18:43:45.216Z,68.31
2023-05-06T18:46:13.576Z,67.71
2023-05-06T18:48:42.089Z,66.83
2023-05-06T18:51:11.944Z,66.87
2023-05-06T18:53:40.376Z,66.36
2023-05-06T18:56:10.975Z,66.02
2023-05-06T18:58:40.192Z,65.73
2023-05-06T19:01:09.735Z,65.26
2023-05-06T19:03:39.394Z,65.14
2023-05-06T19:06:09.416Z,64.99
2023-05-06T19:08:38.708Z,64.71
2023-05-06T19:11:07.154Z,64.07
2023-05-06T19:13:36.920Z,63.78
2023-05-06T19:16:05.437Z,64.03
2023-05-06T19:18:33.768Z,63.20
2023-05-06T19:21:02.699Z,63.06
2023-05-06T19:23:31.232Z,62.18
2023-05-06T19:25:59.631Z,61.75
2023-05-06T19:28:28.041Z,61.57
2023-05-06T19:30:57.828Z,60.88
2023-05-06T19:33:26.357Z,60.51
2023-05-06T19:35:54.755Z,59.82
2023-05-06T19:38:23.157Z,59.58
2023-05-06T19:40:51.544Z,59.50
2023-05-06T19:43:19.965Z,59.42
2023-05-06T19:45:48.359Z,58.97
2023-05-06T19:48:19.722Z,59.30
2023-05-06T19:50:48.171Z,59.22
2023-05-06T19:53:17.849Z,58.81
2023-05-06T19:55:46.420Z,59.11
2023-05-06T19:58:17.345Z,59.97
2023-05-06T20:00:46.468Z,60.78
2023-05-06T20:03:15.319Z,61.52
2023-05-06T20:05:45.189Z,61.54
2023-05-06T20:08:13.603Z,61.57
2023-05-06T20:10:41.957Z,61.64
2023-05-06T20:13:11.958Z,61.10
2023-05-06T20:15:40.424Z,61.08
2023-05-06T20:18:08.898Z,59.87
2023-05-06T20:20:37.990Z,60.30
2023-05-06T20:23:07.929Z,60.19
2023-05-06T20:25:37.746Z,60.86
2023-05-06T20:28:06.999Z,61.08
2023-05-06T20:30:35.494Z,60.31
2023-05-06T20:33:04.086Z,59.73
2023-05-06T20:35:38.293Z,59.36
2023-05-06T20:38:09.381Z,59.26
2023-05-06T20:40:37.832Z,58.76
2023-05-06T20:43:06.264Z,59.70
2023-05-06T20:45:34.740Z,59.27
2023-05-06T20:48:03.084Z,59.04
2023-05-06T20:50:31.466Z,59.61
2023-05-06T20:52:59.888Z,58.67
2023-05-06T20:55:29.711Z,58.15
2023-05-06T20:57:58.154Z,58.88
2023-05-06T21:00:26.649Z,59.07
2023-05-06T21:02:55.108Z,59.74
2023-05-06T21:05:23.687Z,60.01
2023-05-06T21:07:52.184Z,60.55
2023-05-06T21:10:20.782Z,60.73
2023-05-06T21:12:51.179Z,60.52
2023-05-06T21:15:20.058Z,60.03
2023-05-06T21:17:48.526Z,60.30
2023-05-06T21:20:17.287Z,60.13
2023-05-06T21:22:45.655Z,59.35
2023-05-06T21:25:14.398Z,59.34
2023-05-06T21:27:43.189Z,58.81
2023-05-06T21:30:13.881Z,59.06
2023-05-06T21:32:42.308Z,58.72
2023-05-06T21:35:11.402Z,59.05
2023-05-06T21:37:40.034Z,58.97
2023-05-06T21:40:09.569Z,58.64
2023-05-06T21:42:37.943Z,59.17
2023-05-06T21:45:07.473Z,59.28
2023-05-06T21:47:37.435Z,58.56
2023-05-06T21:50:06.773Z,58.89
2023-05-06T21:52:35.289Z,59.45
2023-05-06T21:55:03.802Z,59.20
2023-05-06T21:57:32.811Z,59.11
2023-05-06T22:00:01.725Z,57.96
2023-05-06T22:02:30.120Z,58.61
2023-05-06T22:05:00.166Z,59.37
2023-05-06T22:07:28.810Z,58.95
2023-05-06T22:09:57.257Z,58.46
2023-05-06T22:12:25.660Z,58.07
2023-05-06T22:14:53.981Z,57.91
2023-05-06T22:17:22.355Z,57.83
2023-05-06T22:19:51.636Z,58.13
2023-05-06T22:22:21.900Z,58.94
2023-05-06T22:24:50.381Z,58.46
2023-05-06T22:27:18.710Z,58.95
2023-05-06T22:29:47.276Z,59.23
2023-05-06T22:32:15.576Z,59.15
2023-05-06T22:34:43.905Z,59.19
2023-05-06T22:37:12.250Z,59.01
2023-05-06T22:39:42.129Z,58.35
2023-05-06T22:42:10.477Z,58.34
2023-05-06T22:44:38.757Z,58.17
2023-05-06T22:47:07.292Z,57.64
2023-05-06T22:49:36.477Z,57.93
2023-05-06T22:52:05.170Z,58.12
2023-05-06T22:54:33.616Z,57.58
2023-05-06T22:57:03.457Z,57.47
2023-05-06T22:59:31.918Z,58.06
2023-05-06T23:02:00.245Z,58.06
2023-05-06T23:04:28.527Z,58.48
2023-05-06T23:06:57.507Z,58.98
2023-05-06T23:09:25.869Z,59.21
2023-05-06T23:11:54.188Z,59.65
2023-05-06T23:14:24.092Z,60.26
2023-05-06T23:16:52.668Z,60.67
2023-05-06T23:19:22.167Z,60.68
2023-05-06T23:21:50.635Z,61.34
2023-05-06T23:24:19.107Z,62.02
2023-05-06T23:26:47.470Z,62.31
2023-05-06T23:29:15.792Z,62.68
2023-05-06T23:31:45.694Z,63.41
2023-05-06T23:34:14.533Z,64.19
2023-05-06T23:36:42.871Z,65.15
2023-05-06T23:39:12.398Z,65.79
2023-05-06T23:41:40.769Z,66.60
2023-05-06T23:44:09.090Z,67.19
2023-05-06T23:46:37.467Z,67.89
2023-05-06T23:49:07.276Z,68.82
2023-05-06T23:51:35.675Z,69.38
2023-05-06T23:54:04.111Z,69.83
2023-05-06T23:56:32.539Z,70.72
2023-05-06T23:59:00.887Z,71.37
